createdAt,value
2018-07-26T00:01:41.749Z,13.37
2018-07-26T00:04:10.049Z,14.37
2018-07-26T00:06:38.292Z,13.47
2018-07-26T00:09:09.321Z,14.13
2018-07-26T00:11:38.669Z,14.27
2018-07-26T00:14:06.949Z,14.30
2018-07-26T00:16:35.188Z,14.23
2018-07-26T00:19:03.507Z,13.70
2018-07-26T00:21:31.768Z,13.43
2018-07-26T00:24:00.029Z,14.27
2018-07-26T00:26:28.268Z,16.27
2018-07-26T00:28:56.557Z,15.97
2018-07-26T00:31:24.865Z,16.20
2018-07-26T00:33:53.105Z,14.87
2018-07-26T00:36:21.383Z,16.27
2018-07-26T00:38:49.642Z,16.20
2018-07-26T00:41:17.969Z,15.17
2018-07-26T00:43:46.197Z,14.70
2018-07-26T00:46:14.474Z,15.00
2018-07-26T00:48:42.760Z,14.87
2018-07-26T00:51:11.097Z,14.33
2018-07-26T00:53:39.337Z,14.70
2018-07-26T00:56:07.680Z,15.97
2018-07-26T00:58:35.917Z,14.40
2018-07-26T01:01:04.201Z,13.20
2018-07-26T01:03:32.448Z,11.20
2018-07-26T01:06:00.720Z,9.40
2018-07-26T01:08:28.960Z,11.00
2018-07-26T01:10:57.265Z,11.03
2018-07-26T01:13:25.545Z,12.10
2018-07-26T01:15:53.825Z,12.57
2018-07-26T01:18:22.229Z,12.13
2018-07-26T01:20:50.713Z,12.10
2018-07-26T01:23:18.957Z,11.27
2018-07-26T01:25:47.204Z,11.37
2018-07-26T01:28:15.505Z,11.70
2018-07-26T01:30:43.939Z,11.40
2018-07-26T01:33:12.253Z,12.07
2018-07-26T01:35:41.532Z,11.90
2018-07-26T01:38:09.864Z,11.47
2018-07-26T01:40:38.272Z,12.70
2018-07-26T01:43:17.925Z,11.57
2018-07-26T01:45:46.177Z,12.60
2018-07-26T01:48:14.453Z,13.70
2018-07-26T01:50:42.705Z,13.50
2018-07-26T01:53:10.973Z,13.67
2018-07-26T01:55:39.225Z,13.50
2018-07-26T01:58:07.500Z,16.90
2018-07-26T02:00:35.765Z,15.57
2018-07-26T02:03:04.053Z,13.20
2018-07-26T02:05:32.353Z,11.40
2018-07-26T02:08:00.639Z,12.53
2018-07-26T02:10:28.893Z,12.70
2018-07-26T02:12:57.177Z,12.73
2018-07-26T02:15:25.439Z,10.67
2018-07-26T02:17:53.697Z,11.53
2018-07-26T02:20:22.017Z,10.73
2018-07-26T02:22:50.233Z,10.53
2018-07-26T02:25:18.505Z,10.10
2018-07-26T02:27:46.756Z,11.03
2018-07-26T02:30:15.057Z,10.00
2018-07-26T02:32:43.306Z,10.07
2018-07-26T02:35:11.569Z,8.97
2018-07-26T02:37:39.809Z,8.90
2018-07-26T02:40:08.081Z,9.20
2018-07-26T02:42:36.346Z,8.63
2018-07-26T02:45:04.674Z,8.87
2018-07-26T02:47:32.950Z,8.80
2018-07-26T02:50:01.243Z,9.70
2018-07-26T02:52:29.498Z,9.67
2018-07-26T02:54:57.777Z,8.30
2018-07-26T02:57:26.028Z,8.60
2018-07-26T02:59:54.304Z,9.90
2018-07-26T03:02:22.560Z,11.17
2018-07-26T03:04:50.854Z,11.33
2018-07-26T03:07:19.559Z,12.07
2018-07-26T03:09:47.828Z,11.30
2018-07-26T03:12:16.101Z,10.60
2018-07-26T03:14:45.562Z,10.53
2018-07-26T03:17:15.246Z,11.87
2018-07-26T03:19:44.561Z,10.13
2018-07-26T03:22:12.870Z,11.20
2018-07-26T03:24:41.136Z,11.03
2018-07-26T03:27:09.533Z,10.90
2018-07-26T03:29:37.816Z,12.27
2018-07-26T03:32:06.361Z,10.87
2018-07-26T03:34:34.636Z,11.60
2018-07-26T03:37:02.973Z,12.10
2018-07-26T03:39:31.254Z,10.87
2018-07-26T03:41:59.551Z,11.00
2018-07-26T03:44:27.822Z,11.13
2018-07-26T03:46:56.116Z,11.40
2018-07-26T03:49:24.394Z,11.90
2018-07-26T03:51:52.805Z,10.90
2018-07-26T03:54:21.101Z,13.20
2018-07-26T03:56:49.394Z,11.60
2018-07-26T03:59:17.653Z,11.43
2018-07-26T04:01:45.996Z,16.63
2018-07-26T04:04:14.265Z,12.27
2018-07-26T04:06:42.581Z,13.00
2018-07-26T04:09:12.872Z,13.47
2018-07-26T04:11:41.859Z,14.17
2018-07-26T04:14:10.245Z,12.90
2018-07-26T04:16:38.976Z,15.13
2018-07-26T04:19:08.038Z,13.43
2018-07-26T04:21:36.373Z,14.63
2018-07-26T04:24:04.679Z,14.40
2018-07-26T04:26:32.953Z,15.00
2018-07-26T04:29:01.313Z,16.23
2018-07-26T04:31:29.649Z,16.10
2018-07-26T04:33:58.054Z,16.60
2018-07-26T04:36:26.304Z,17.27
2018-07-26T04:38:54.591Z,18.27
2018-07-26T04:41:22.880Z,17.87
2018-07-26T04:43:51.156Z,16.00
2018-07-26T04:46:19.405Z,19.30
2018-07-26T04:48:47.772Z,19.20
2018-07-26T04:51:16.070Z,17.87
2018-07-26T04:53:44.369Z,17.80
2018-07-26T04:56:12.644Z,18.90
2018-07-26T04:58:41.420Z,18.50
2018-07-26T05:01:09.701Z,17.40
2018-07-26T05:03:37.960Z,16.53
2018-07-26T05:06:06.252Z,18.43
2018-07-26T05:08:34.524Z,18.03
2018-07-26T05:11:02.846Z,17.07
2018-07-26T05:13:31.104Z,16.67
2018-07-26T05:15:59.405Z,17.50
2018-07-26T05:18:27.697Z,18.77
2018-07-26T05:20:55.965Z,18.10
2018-07-26T05:23:24.221Z,15.50
2018-07-26T05:25:52.513Z,16.00
2018-07-26T05:28:20.873Z,15.50
2018-07-26T05:30:49.165Z,17.10
2018-07-26T05:33:17.428Z,16.00
2018-07-26T05:35:45.728Z,16.37
2018-07-26T05:38:14.000Z,15.07
2018-07-26T05:40:42.317Z,15.03
2018-07-26T05:43:10.645Z,16.40
2018-07-26T05:45:38.885Z,14.53
2018-07-26T05:48:07.189Z,15.03
2018-07-26T05:50:35.485Z,14.37
2018-07-26T05:53:03.897Z,15.10
2018-07-26T05:55:32.199Z,15.50
2018-07-26T05:58:00.526Z,14.50
2018-07-26T06:00:28.785Z,14.13
2018-07-26T06:02:57.089Z,13.03
2018-07-26T06:05:25.369Z,13.00
2018-07-26T06:07:53.697Z,13.03
2018-07-26T06:10:21.979Z,13.80
2018-07-26T06:12:50.265Z,13.90
2018-07-26T06:15:18.544Z,13.67
2018-07-26T06:17:46.852Z,12.07
2018-07-26T06:20:15.125Z,13.23
2018-07-26T06:22:43.430Z,14.03
2018-07-26T06:25:11.693Z,12.10
2018-07-26T06:27:40.037Z,12.50
2018-07-26T06:30:10.921Z,12.80
2018-07-26T06:32:39.244Z,12.57
2018-07-26T06:35:08.297Z,14.10
2018-07-26T06:37:36.701Z,12.40
2018-07-26T06:40:05.600Z,12.40
2018-07-26T06:42:33.895Z,11.97
2018-07-26T06:45:02.171Z,11.93
2018-07-26T06:47:30.485Z,12.23
2018-07-26T06:49:58.769Z,12.40
2018-07-26T06:52:27.149Z,13.17
2018-07-26T06:54:55.433Z,13.33
2018-07-26T06:57:23.737Z,12.57
2018-07-26T06:59:52.212Z,14.83
2018-07-26T07:02:20.481Z,15.10
2018-07-26T07:04:48.850Z,13.27
2018-07-26T07:07:17.116Z,13.27
2018-07-26T07:09:45.653Z,12.50
2018-07-26T07:12:13.921Z,11.90
2018-07-26T07:14:42.205Z,14.40
2018-07-26T07:17:10.673Z,13.30
2018-07-26T07:19:39.005Z,13.00
2018-07-26T07:22:08.317Z,12.57
2018-07-26T07:24:36.656Z,13.27
2018-07-26T07:27:05.004Z,12.33
2018-07-26T07:29:33.310Z,12.87
2018-07-26T07:32:01.670Z,11.90
2018-07-26T07:34:29.955Z,12.93
2018-07-26T07:36:58.221Z,11.83
2018-07-26T07:39:26.511Z,13.53
2018-07-26T07:41:54.777Z,12.47
2018-07-26T07:44:23.060Z,11.73
2018-07-26T07:46:51.309Z,11.63
2018-07-26T07:49:19.733Z,11.77
2018-07-26T07:51:48.094Z,12.80
2018-07-26T07:54:16.361Z,11.97
2018-07-26T07:56:44.653Z,11.80
2018-07-26T07:59:12.944Z,11.30
2018-07-26T08:01:41.228Z,11.40
2018-07-26T08:04:09.504Z,10.87
2018-07-26T08:06:37.810Z,12.60
2018-07-26T08:09:09.028Z,12.20
2018-07-26T08:11:37.319Z,11.40
2018-07-26T08:14:06.204Z,11.70
2018-07-26T08:16:34.517Z,12.30
2018-07-26T08:19:02.808Z,10.33
2018-07-26T08:21:31.093Z,12.20
2018-07-26T08:23:59.401Z,11.07
2018-07-26T08:26:27.769Z,10.63
2018-07-26T08:28:56.116Z,12.03
2018-07-26T08:31:24.397Z,11.10
2018-07-26T08:33:52.676Z,11.17
2018-07-26T08:36:20.979Z,10.57
2018-07-26T08:38:49.256Z,11.37
2018-07-26T08:41:17.544Z,12.20
2018-07-26T08:43:45.801Z,12.70
2018-07-26T08:46:14.093Z,11.20
2018-07-26T08:48:42.408Z,9.93
2018-07-26T08:51:10.669Z,12.37
2018-07-26T08:53:38.945Z,11.47
2018-07-26T08:56:07.207Z,11.20
2018-07-26T08:58:35.594Z,10.43
2018-07-26T09:01:03.962Z,11.57
2018-07-26T09:03:32.241Z,10.47
2018-07-26T09:06:00.493Z,11.47
2018-07-26T09:08:29.213Z,10.03
2018-07-26T09:10:57.831Z,10.20
2018-07-26T09:13:26.096Z,11.00
2018-07-26T09:15:54.388Z,10.50
2018-07-26T09:18:22.670Z,11.23
2018-07-26T09:20:51.036Z,10.77
2018-07-26T09:23:19.484Z,10.53
2018-07-26T09:25:47.761Z,11.37
2018-07-26T09:28:16.053Z,10.40
2018-07-26T09:30:44.349Z,10.40
2018-07-26T09:33:12.713Z,11.60
2018-07-26T09:35:40.969Z,10.40
2018-07-26T09:38:09.224Z,10.37
2018-07-26T09:40:37.541Z,11.47
2018-07-26T09:43:05.900Z,10.73
2018-07-26T09:45:34.205Z,10.83
2018-07-26T09:48:02.472Z,10.63
2018-07-26T09:50:30.765Z,10.87
2018-07-26T09:52:59.053Z,10.33
2018-07-26T09:55:27.335Z,11.00
2018-07-26T09:57:55.834Z,11.53
2018-07-26T10:00:29.408Z,10.13
2018-07-26T10:02:57.776Z,11.77
2018-07-26T10:05:26.060Z,11.30
2018-07-26T10:07:54.313Z,10.57
2018-07-26T10:10:22.616Z,11.00
2018-07-26T10:12:51.023Z,11.30
2018-07-26T10:15:19.321Z,10.20
2018-07-26T10:17:47.659Z,12.53
2018-07-26T10:20:15.980Z,10.90
2018-07-26T10:22:44.402Z,10.67
2018-07-26T10:25:12.713Z,10.63
2018-07-26T10:27:41.064Z,10.43
2018-07-26T10:30:09.765Z,10.13
2018-07-26T10:32:38.084Z,8.60
2018-07-26T10:35:06.390Z,9.50
2018-07-26T10:37:34.685Z,10.23
2018-07-26T10:40:02.968Z,9.77
2018-07-26T10:42:31.363Z,9.23
2018-07-26T10:44:59.618Z,9.33
2018-07-26T10:47:27.923Z,8.53
2018-07-26T10:49:56.275Z,9.57
2018-07-26T10:52:24.694Z,10.33
2018-07-26T10:54:52.957Z,10.47
2018-07-26T10:57:21.317Z,10.40
2018-07-26T10:59:49.624Z,10.47
2018-07-26T11:02:17.912Z,9.80
2018-07-26T11:04:46.168Z,9.90
2018-07-26T11:07:14.445Z,9.83
2018-07-26T11:09:42.767Z,12.47
2018-07-26T11:12:11.041Z,11.43
2018-07-26T11:14:39.296Z,9.93
2018-07-26T11:17:07.588Z,10.70
2018-07-26T11:19:35.845Z,10.60
2018-07-26T11:22:04.181Z,11.37
2018-07-26T11:24:32.462Z,11.13
2018-07-26T11:27:00.760Z,11.07
2018-07-26T11:29:29.166Z,10.03
2018-07-26T11:31:57.454Z,10.60
2018-07-26T11:34:25.713Z,10.53
2018-07-26T11:36:54.007Z,10.00
2018-07-26T11:39:22.284Z,10.53
2018-07-26T11:41:50.645Z,10.80
2018-07-26T11:44:18.977Z,10.00
2018-07-26T11:46:47.269Z,11.33
2018-07-26T11:49:15.573Z,11.17
2018-07-26T11:51:43.828Z,10.10
2018-07-26T11:54:12.182Z,8.87
2018-07-26T11:56:40.517Z,10.10
2018-07-26T11:59:08.799Z,9.27
2018-07-26T12:01:37.075Z,9.93
2018-07-26T12:04:05.345Z,9.17
2018-07-26T12:06:33.596Z,7.80
2018-07-26T12:09:01.894Z,8.03
2018-07-26T12:11:30.145Z,6.30
2018-07-26T12:13:58.416Z,7.33
2018-07-26T12:16:26.754Z,6.23
2018-07-26T12:18:55.013Z,6.30
2018-07-26T12:21:23.293Z,6.50
2018-07-26T12:23:51.560Z,6.20
2018-07-26T12:26:19.833Z,6.37
2018-07-26T12:28:48.085Z,6.80
2018-07-26T12:31:16.400Z,7.17
2018-07-26T12:33:44.661Z,7.10
2018-07-26T12:36:13.819Z,6.40
2018-07-26T12:38:42.083Z,7.30
2018-07-26T12:41:10.499Z,9.50
2018-07-26T12:43:39.073Z,10.20
2018-07-26T12:46:07.326Z,9.97
2018-07-26T12:48:35.637Z,8.07
2018-07-26T12:51:03.965Z,10.07
2018-07-26T12:53:32.257Z,9.30
2018-07-26T12:56:00.565Z,9.87
2018-07-26T12:58:28.809Z,8.30
2018-07-26T13:00:57.094Z,7.43
2018-07-26T13:03:25.402Z,6.80
2018-07-26T13:05:53.746Z,7.30
2018-07-26T13:08:22.021Z,7.77
2018-07-26T13:10:50.357Z,6.30
2018-07-26T13:13:18.655Z,7.20
2018-07-26T13:15:46.965Z,6.77
2018-07-26T13:18:15.381Z,6.57
2018-07-26T13:20:43.708Z,7.03
2018-07-26T13:23:11.976Z,7.80
2018-07-26T13:25:40.272Z,6.03
2018-07-26T13:28:08.597Z,6.30
2018-07-26T13:30:36.923Z,7.40
2018-07-26T13:33:05.253Z,6.17
2018-07-26T13:35:33.534Z,6.37
2018-07-26T13:38:01.912Z,6.30
2018-07-26T13:40:31.137Z,6.20
2018-07-26T13:42:59.624Z,5.70
2018-07-26T13:45:27.971Z,6.20
2018-07-26T13:47:56.333Z,7.13
2018-07-26T13:50:24.611Z,5.97
2018-07-26T13:52:52.953Z,6.63
2018-07-26T13:55:21.221Z,6.27
2018-07-26T13:57:49.537Z,6.80
2018-07-26T14:00:17.817Z,5.60
2018-07-26T14:02:46.103Z,5.57
2018-07-26T14:05:14.407Z,5.10
2018-07-26T14:07:42.703Z,6.17
2018-07-26T14:10:11.030Z,5.03
2018-07-26T14:12:39.734Z,5.37
2018-07-26T14:15:09.866Z,4.93
2018-07-26T14:17:38.551Z,4.60
2018-07-26T14:20:08.529Z,4.70
2018-07-26T14:22:36.814Z,4.40
2018-07-26T14:25:05.944Z,4.47
2018-07-26T14:27:35.075Z,4.40
2018-07-26T14:30:03.537Z,4.83
2018-07-26T14:32:31.836Z,4.70
2018-07-26T14:35:00.626Z,4.10
2018-07-26T14:37:28.892Z,4.13
2018-07-26T14:39:57.209Z,5.20
2018-07-26T14:42:25.513Z,4.20
2018-07-26T14:44:53.863Z,4.37
2018-07-26T14:47:22.129Z,4.80
2018-07-26T14:49:50.420Z,4.80
2018-07-26T14:52:18.712Z,4.23
2018-07-26T14:54:47.046Z,4.90
2018-07-26T14:57:15.318Z,4.53
2018-07-26T14:59:43.580Z,5.10
2018-07-26T15:02:12.405Z,5.23
2018-07-26T15:04:40.693Z,4.70
2018-07-26T15:07:09.069Z,4.50
2018-07-26T15:09:37.324Z,4.53
2018-07-26T15:12:05.682Z,4.90
2018-07-26T15:14:33.948Z,5.20
2018-07-26T15:17:02.241Z,5.30
2018-07-26T15:19:30.516Z,4.80
2018-07-26T15:21:58.805Z,4.73
2018-07-26T15:24:28.292Z,5.07
2018-07-26T15:26:56.585Z,4.27
2018-07-26T15:29:24.949Z,5.33
2018-07-26T15:31:53.260Z,5.47
2018-07-26T15:34:21.513Z,4.50
2018-07-26T15:36:49.801Z,3.87
2018-07-26T15:39:18.053Z,4.10
2018-07-26T15:41:46.385Z,5.00
2018-07-26T15:44:16.085Z,3.60
2018-07-26T15:46:45.489Z,4.90
2018-07-26T15:49:13.773Z,4.27
2018-07-26T15:51:43.192Z,4.50
2018-07-26T15:54:12.549Z,4.50
2018-07-26T15:56:40.873Z,4.10
2018-07-26T15:59:09.170Z,4.20
2018-07-26T16:01:37.497Z,4.30
2018-07-26T16:04:07.002Z,4.40
2018-07-26T16:06:35.269Z,4.20
2018-07-26T16:09:03.977Z,3.90
2018-07-26T16:11:32.249Z,4.63
2018-07-26T16:14:00.694Z,3.90
2018-07-26T16:16:28.961Z,4.60
2018-07-26T16:18:57.271Z,4.67
2018-07-26T16:21:25.552Z,3.70
2018-07-26T16:23:53.913Z,4.07
2018-07-26T16:26:22.159Z,5.03
2018-07-26T16:28:51.611Z,4.60
2018-07-26T16:31:19.901Z,5.30
2018-07-26T16:33:48.212Z,4.90
2018-07-26T16:36:16.725Z,4.53
2018-07-26T16:38:45.050Z,5.00
2018-07-26T16:41:13.320Z,5.07
2018-07-26T16:43:41.615Z,4.50
2018-07-26T16:46:09.949Z,5.63
2018-07-26T16:48:39.265Z,4.63
2018-07-26T16:51:07.577Z,5.27
2018-07-26T16:53:39.021Z,4.93
2018-07-26T16:56:08.532Z,5.00
2018-07-26T16:58:36.975Z,5.03
2018-07-26T17:01:08.845Z,5.13
2018-07-26T17:03:38.210Z,3.83
2018-07-26T17:06:06.541Z,4.63
2018-07-26T17:08:34.830Z,5.30
2018-07-26T17:11:06.014Z,5.00
2018-07-26T17:13:34.492Z,4.57
2018-07-26T17:16:06.213Z,5.10
2018-07-26T17:18:34.530Z,5.47
2018-07-26T17:21:04.961Z,5.40
2018-07-26T17:23:33.501Z,5.30
2018-07-26T17:26:01.925Z,5.07
2018-07-26T17:28:30.248Z,5.97
2018-07-26T17:30:58.607Z,5.87
2018-07-26T17:33:28.878Z,5.90
2018-07-26T17:35:58.183Z,6.10
2018-07-26T17:38:26.451Z,5.60
2018-07-26T17:40:54.973Z,7.00
2018-07-26T17:43:23.630Z,5.87
2018-07-26T17:45:53.053Z,5.60
2018-07-26T17:48:22.465Z,6.33
2018-07-26T17:50:51.882Z,6.67
2018-07-26T17:53:20.191Z,6.37
2018-07-26T17:55:49.477Z,6.00
2018-07-26T17:58:17.782Z,6.83
2018-07-26T18:00:46.069Z,6.50
2018-07-26T18:03:14.388Z,7.40
2018-07-26T18:05:42.655Z,6.70
2018-07-26T18:08:10.952Z,6.73
2018-07-26T18:10:39.981Z,7.50
2018-07-26T18:13:08.290Z,7.07
2018-07-26T18:15:36.590Z,7.27
2018-07-26T18:18:04.926Z,8.03
2018-07-26T18:20:33.456Z,7.70
2018-07-26T18:23:01.774Z,7.80
2018-07-26T18:25:30.130Z,7.37
2018-07-26T18:27:58.406Z,7.53
2018-07-26T18:30:26.701Z,7.50
2018-07-26T18:32:55.101Z,7.83
2018-07-26T18:35:23.373Z,6.70
2018-07-26T18:37:51.881Z,7.63
2018-07-26T18:40:20.170Z,6.90
2018-07-26T18:42:48.489Z,8.20
2018-07-26T18:45:16.829Z,7.43
2018-07-26T18:47:45.169Z,7.53
2018-07-26T18:50:13.445Z,7.40
2018-07-26T18:52:41.726Z,7.50
2018-07-26T18:55:10.602Z,7.60
2018-07-26T18:57:39.568Z,7.90
2018-07-26T19:00:10.026Z,7.30
2018-07-26T19:02:38.281Z,7.20
2018-07-26T19:05:07.500Z,8.23
2018-07-26T19:07:37.161Z,7.87
2018-07-26T19:10:07.529Z,7.97
2018-07-26T19:12:36.801Z,7.73
2018-07-26T19:15:06.904Z,7.60
2018-07-26T19:17:35.305Z,7.33
2018-07-26T19:20:03.625Z,8.40
2018-07-26T19:22:31.893Z,7.60
2018-07-26T19:25:00.181Z,7.40
2018-07-26T19:27:28.442Z,8.30
2018-07-26T19:29:56.809Z,8.00
2018-07-26T19:32:25.072Z,7.83
2018-07-26T19:34:53.427Z,8.20
2018-07-26T19:37:21.706Z,7.97
2018-07-26T19:39:53.105Z,7.23
2018-07-26T19:42:21.370Z,7.80
2018-07-26T19:44:49.713Z,8.37
2018-07-26T19:47:17.986Z,7.67
2018-07-26T19:49:46.281Z,7.97
2018-07-26T19:52:14.649Z,8.47
2018-07-26T19:54:42.974Z,7.70
2018-07-26T19:57:11.737Z,7.47
2018-07-26T19:59:40.013Z,8.43
2018-07-26T20:02:08.475Z,7.83
2018-07-26T20:04:36.976Z,8.50
2018-07-26T20:07:05.273Z,7.90
2018-07-26T20:09:33.673Z,8.33
2018-07-26T20:12:02.230Z,8.30
2018-07-26T20:14:30.510Z,8.37
2018-07-26T20:16:58.868Z,8.37
2018-07-26T20:19:27.136Z,7.67
2018-07-26T20:21:55.409Z,8.57
2018-07-26T20:24:23.733Z,8.80
2018-07-26T20:26:52.104Z,8.20
2018-07-26T20:29:20.338Z,8.90
2018-07-26T20:31:48.688Z,8.53
2018-07-26T20:34:16.974Z,8.70
2018-07-26T20:36:45.254Z,8.77
2018-07-26T20:39:15.552Z,8.77
2018-07-26T20:41:44.901Z,8.73
2018-07-26T20:44:13.242Z,9.30
2018-07-26T20:46:41.498Z,8.80
2018-07-26T20:49:10.053Z,9.30
2018-07-26T20:51:38.504Z,9.70
2018-07-26T20:54:06.977Z,9.03
2018-07-26T20:56:35.502Z,8.90
2018-07-26T20:59:03.852Z,8.53
2018-07-26T21:01:32.141Z,8.93
2018-07-26T21:04:00.474Z,9.13
2018-07-26T21:06:28.749Z,9.67
2018-07-26T21:08:57.113Z,9.73
2018-07-26T21:11:25.433Z,9.30
2018-07-26T21:13:53.755Z,11.90
2018-07-26T21:16:22.082Z,10.23
2018-07-26T21:18:50.405Z,10.23
2018-07-26T21:21:18.716Z,10.67
2018-07-26T21:23:47.198Z,9.87
2018-07-26T21:26:15.510Z,9.80
2018-07-26T21:28:43.893Z,11.53
2018-07-26T21:31:12.275Z,11.67
2018-07-26T21:33:40.570Z,12.17
2018-07-26T21:36:08.860Z,11.60
2018-07-26T21:38:37.241Z,12.37
2018-07-26T21:41:05.541Z,10.90
2018-07-26T21:43:33.828Z,11.43
2018-07-26T21:46:02.137Z,10.40
2018-07-26T21:48:31.492Z,11.10
2018-07-26T21:50:59.789Z,10.33
2018-07-26T21:53:28.138Z,11.07
2018-07-26T21:55:56.457Z,9.90
2018-07-26T21:58:24.748Z,10.50
2018-07-26T22:00:57.517Z,10.60
2018-07-26T22:03:26.890Z,10.90
2018-07-26T22:05:55.190Z,9.83
2018-07-26T22:08:23.525Z,10.90
2018-07-26T22:10:51.845Z,11.63
2018-07-26T22:13:20.777Z,10.70
2018-07-26T22:15:50.246Z,10.80
2018-07-26T22:18:18.542Z,9.60
2018-07-26T22:20:46.865Z,10.30
2018-07-26T22:23:15.241Z,11.30
2018-07-26T22:25:48.517Z,11.93
2018-07-26T22:28:17.328Z,10.50
2018-07-26T22:30:46.089Z,10.70
2018-07-26T22:33:14.477Z,12.03
2018-07-26T22:35:43.486Z,11.37
2018-07-26T22:38:12.614Z,11.60
2018-07-26T22:40:41.917Z,11.23
2018-07-26T22:43:10.233Z,11.73
2018-07-26T22:45:39.049Z,11.90
2018-07-26T22:48:07.705Z,12.53
2018-07-26T22:50:36.124Z,11.57
2018-07-26T22:53:04.429Z,11.20
2018-07-26T22:55:32.729Z,11.67
2018-07-26T22:58:01.013Z,12.13
2018-07-26T23:00:29.533Z,11.47
2018-07-26T23:02:57.881Z,11.80
2018-07-26T23:05:26.157Z,11.97
2018-07-26T23:07:54.509Z,12.30
2018-07-26T23:10:22.773Z,11.40
2018-07-26T23:12:51.074Z,13.13
2018-07-26T23:15:19.334Z,12.07
2018-07-26T23:17:47.645Z,12.70
2018-07-26T23:20:15.966Z,12.83
2018-07-26T23:22:44.489Z,12.80
2018-07-26T23:25:12.867Z,13.43
2018-07-26T23:27:41.143Z,12.77
2018-07-26T23:30:12.694Z,12.20
2018-07-26T23:32:41.242Z,12.13
2018-07-26T23:35:09.917Z,13.20
2018-07-26T23:37:38.173Z,13.17
2018-07-26T23:40:08.259Z,13.97
2018-07-26T23:42:36.553Z,12.00
2018-07-26T23:45:05.378Z,13.30
2018-07-26T23:47:33.665Z,11.50
2018-07-26T23:50:01.963Z,11.90
2018-07-26T23:52:30.791Z,12.90
2018-07-26T23:54:59.313Z,12.83
2018-07-26T23:57:27.597Z,13.70
2018-07-26T23:59:55.878Z,12.27
